Time;durP1;ratioP1;P1;durP2;ratioP2;P2;SDS_P1;SDS_P2;PMS_P1;PMS_P2;Temp;Humidity;BMP_temperature;BMP_pressure;BME280_temperature;BME280_humidity;BME280_pressure;Samples;Min_cycle;Max_cycle;Signal;HPM_P1;HPM_P2
2023/08/01 00:00:49;;;;;;;;;;;19.30;99.90;;;;;;2106978;28;19908;-76
2023/08/01 00:01:49;;;;;;;;;;;19.30;99.90;;;;;;2108407;28;19916;-77
2023/08/01 00:02:50;;;;;;;;;;;19.30;99.90;;;;;;2111170;28;20360;-76
2023/08/01 00:03:51;;;;;;;;;;;19.20;99.90;;;;;;2104562;28;19916;-76
2023/08/01 00:04:51;;;;;;;;;;;19.20;99.90;;;;;;2104242;28;20314;-76
2023/08/01 00:05:52;;;;;;;;;;;19.20;99.90;;;;;;2104311;28;20929;-76
2023/08/01 00:06:52;;;;;;;;;;;19.20;99.90;;;;;;2095855;28;20314;-75
2023/08/01 00:07:53;;;;;;;;;;;19.20;99.90;;;;;;2091934;28;20214;-75
2023/08/01 00:08:53;;;;;;;;;;;19.10;99.90;;;;;;2095519;28;19912;-75
2023/08/01 00:09:54;;;;;;;;;;;19.10;99.90;;;;;;2106780;28;19924;-76
2023/08/01 00:10:54;;;;;;;;;;;19.10;99.90;;;;;;2095830;28;19958;-76
2023/08/01 00:11:55;;;;;;;;;;;19.10;99.90;;;;;;2092877;28;19924;-76
2023/08/01 00:12:55;;;;;;;;;;;19.10;99.90;;;;;;2107249;28;20574;-78
2023/08/01 00:13:56;;;;;;;;;;;19.00;99.90;;;;;;2092191;28;19931;-76
2023/08/01 00:14:57;;;;;;;;;;;19.00;99.90;;;;;;2095054;28;19969;-77
2023/08/01 00:15:57;;;;;;;;;;;19.00;99.90;;;;;;2103813;28;20354;-77
2023/08/01 00:16:58;;;;;;;;;;;19.00;99.90;;;;;;2106264;28;19927;-75
2023/08/01 00:17:58;;;;;;;;;;;19.00;99.90;;;;;;2102378;28;19916;-77
2023/08/01 00:18:59;;;;;;;;;;;19.00;99.90;;;;;;2096658;28;19913;-76
2023/08/01 00:19:59;;;;;;;;;;;19.00;99.90;;;;;;2104998;28;19943;-76
2023/08/01 00:21:00;;;;;;;;;;;19.00;99.90;;;;;;2106710;28;19916;-76
2023/08/01 00:22:00;;;;;;;;;;;19.00;99.90;;;;;;2101762;28;19965;-76
2023/08/01 00:23:01;;;;;;;;;;;18.90;99.90;;;;;;2091882;28;19938;-76
2023/08/01 00:24:01;;;;;;;;;;;18.90;99.90;;;;;;2091647;28;19931;-76
2023/08/01 00:25:02;;;;;;;;;;;18.90;99.90;;;;;;2098326;28;21046;-76
2023/08/01 00:26:02;;;;;;;;;;;18.90;99.90;;;;;;2101099;28;19947;-75
2023/08/01 00:27:03;;;;;;;;;;;18.90;99.90;;;;;;2104107;28;19924;-76
2023/08/01 00:28:04;;;;;;;;;;;18.90;99.90;;;;;;2100783;28;20142;-78
2023/08/01 00:29:04;;;;;;;;;;;18.90;99.90;;;;;;2105064;28;19912;-76
2023/08/01 00:30:05;;;;;;;;;;;19.00;99.90;;;;;;2105012;28;20465;-75
2023/08/01 00:31:06;;;;;;;;;;;19.00;99.90;;;;;;2105866;28;20010;-75
2023/08/01 00:32:07;;;;;;;;;;;19.00;99.90;;;;;;2103671;28;20351;-75
2023/08/01 00:33:07;;;;;;;;;;;19.00;99.90;;;;;;2101184;28;20576;-75
2023/08/01 00:34:07;;;;;;;;;;;19.00;99.90;;;;;;2088539;28;20333;-75
2023/08/01 00:35:08;;;;;;;;;;;18.90;99.90;;;;;;2103369;28;20015;-76
2023/08/01 00:36:09;;;;;;;;;;;19.00;99.90;;;;;;2101461;28;19955;-76
2023/08/01 00:37:09;;;;;;;;;;;18.90;99.90;;;;;;2107707;28;20161;-76
2023/08/01 00:38:10;;;;;;;;;;;19.00;99.90;;;;;;2098468;28;20017;-76
2023/08/01 00:39:10;;;;;;;;;;;19.00;99.90;;;;;;2103499;28;20373;-76
2023/08/01 00:40:11;;;;;;;;;;;18.90;99.90;;;;;;2099242;28;19916;-76
2023/08/01 00:41:11;;;;;;;;;;;18.90;99.90;;;;;;2091229;28;20379;-76
2023/08/01 00:42:13;;;;;;;;;;;18.90;99.90;;;;;;2103968;28;20042;-76
2023/08/01 00:43:13;;;;;;;;;;;18.90;99.90;;;;;;2104088;28;19916;-75
2023/08/01 00:44:14;;;;;;;;;;;18.90;99.90;;;;;;2104188;28;20229;-74
2023/08/01 00:45:14;;;;;;;;;;;18.90;99.90;;;;;;2094985;28;19913;-76
2023/08/01 00:46:15;;;;;;;;;;;18.90;99.90;;;;;;2103801;28;20858;-76
2023/08/01 00:47:15;;;;;;;;;;;18.90;99.90;;;;;;2103573;28;19916;-75
2023/08/01 00:48:18;;;;;;;;;;;18.90;99.90;;;;;;2102129;28;19916;-75
2023/08/01 00:49:19;;;;;;;;;;;19.00;99.90;;;;;;2106403;28;20398;-75
2023/08/01 00:50:20;;;;;;;;;;;19.00;99.90;;;;;;2103489;28;19975;-75
2023/08/01 00:51:20;;;;;;;;;;;19.00;99.90;;;;;;2095072;28;19916;-75
2023/08/01 00:52:21;;;;;;;;;;;18.90;99.90;;;;;;2099866;28;19923;-76
2023/08/01 00:53:22;;;;;;;;;;;18.90;99.90;;;;;;2106013;28;19912;-76
2023/08/01 00:54:22;;;;;;;;;;;19.00;99.90;;;;;;2104667;28;19916;-75
2023/08/01 00:55:23;;;;;;;;;;;19.00;99.90;;;;;;2099159;28;19950;-78
2023/08/01 00:56:24;;;;;;;;;;;19.00;99.90;;;;;;2105906;28;20871;-76
2023/08/01 00:57:24;;;;;;;;;;;19.00;99.90;;;;;;2105018;28;19912;-77
2023/08/01 00:58:25;;;;;;;;;;;19.00;99.90;;;;;;2104959;28;19919;-77
2023/08/01 00:59:25;;;;;;;;;;;19.00;99.90;;;;;;2098065;28;20073;-76
2023/08/01 01:00:26;;;;;;;;;;;19.00;99.90;;;;;;2088411;28;19978;-76
2023/08/01 01:01:26;;;;;;;;;;;19.00;99.90;;;;;;2098345;28;20378;-76
2023/08/01 01:02:27;;;;;;;;;;;19.00;99.90;;;;;;2103070;28;19917;-77
2023/08/01 01:03:27;;;;;;;;;;;19.00;99.90;;;;;;2105362;28;19975;-77
2023/08/01 01:04:28;;;;;;;;;;;19.00;99.90;;;;;;2102229;28;19920;-76
2023/08/01 01:05:34;;;;;;;;;;;19.00;99.90;;;;;;2099199;28;19916;-75
2023/08/01 01:06:39;;;;;;;;;;;19.00;99.90;;;;;;2104857;28;19912;-75
2023/08/01 01:07:39;;;;;;;;;;;19.00;99.90;;;;;;2097124;28;19916;-76
2023/08/01 01:08:40;;;;;;;;;;;19.10;99.90;;;;;;2105484;28;19920;-76
2023/08/01 01:09:41;;;;;;;;;;;19.00;99.90;;;;;;2079394;28;20470;-75
2023/08/01 01:10:41;;;;;;;;;;;19.00;99.90;;;;;;2096419;28;19982;-74
2023/08/01 01:11:42;;;;;;;;;;;19.00;99.90;;;;;;2093553;28;20438;-77
2023/08/01 01:12:43;;;;;;;;;;;19.00;99.90;;;;;;2102554;28;19920;-76
2023/08/01 01:13:43;;;;;;;;;;;19.00;99.90;;;;;;2104931;28;19985;-76
2023/08/01 01:14:44;;;;;;;;;;;19.00;99.90;;;;;;2108230;28;20436;-76
2023/08/01 01:15:44;;;;;;;;;;;19.00;99.90;;;;;;2106133;28;19912;-76
2023/08/01 01:16:45;;;;;;;;;;;19.00;99.90;;;;;;2105550;28;20184;-77
2023/08/01 01:17:45;;;;;;;;;;;19.00;99.90;;;;;;2098100;28;19965;-75
2023/08/01 01:18:46;;;;;;;;;;;19.00;99.90;;;;;;2101895;28;19916;-76
2023/08/01 01:19:46;;;;;;;;;;;19.00;99.90;;;;;;2106411;28;19912;-74
2023/08/01 01:20:47;;;;;;;;;;;19.00;99.90;;;;;;2102150;28;20002;-76
2023/08/01 01:21:48;;;;;;;;;;;19.00;99.90;;;;;;2101591;28;19924;-76
2023/08/01 01:22:49;;;;;;;;;;;19.10;99.90;;;;;;2099711;28;19912;-78
2023/08/01 01:23:50;;;;;;;;;;;19.10;99.90;;;;;;2098184;28;19912;-77
2023/08/01 01:24:52;;;;;;;;;;;19.10;99.90;;;;;;2099639;28;20002;-78
2023/08/01 01:25:54;;;;;;;;;;;19.10;99.90;;;;;;2096132;28;19992;-77
2023/08/01 01:26:55;;;;;;;;;;;19.10;99.90;;;;;;2104706;28;19943;-77
2023/08/01 01:27:56;;;;;;;;;;;19.10;99.90;;;;;;2104908;28;19958;-77
2023/08/01 01:28:57;;;;;;;;;;;19.20;99.90;;;;;;2096839;28;20010;-77
2023/08/01 01:29:59;;;;;;;;;;;19.20;99.90;;;;;;2094102;28;19921;-77
2023/08/01 01:31:01;;;;;;;;;;;19.20;99.90;;;;;;2105260;28;20060;-77
2023/08/01 01:32:02;;;;;;;;;;;19.20;99.90;;;;;;2097421;28;19917;-76
2023/08/01 01:33:03;;;;;;;;;;;19.20;99.90;;;;;;2099819;28;20401;-76
2023/08/01 01:34:04;;;;;;;;;;;19.20;99.90;;;;;;2103251;28;19912;-76
2023/08/01 01:35:05;;;;;;;;;;;19.20;99.90;;;;;;2096527;28;19924;-76
2023/08/01 01:36:05;;;;;;;;;;;19.20;99.90;;;;;;2106128;28;19913;-77
2023/08/01 01:37:06;;;;;;;;;;;19.20;99.90;;;;;;2101087;28;20492;-78
2023/08/01 01:38:08;;;;;;;;;;;19.20;99.90;;;;;;2105250;28;19965;-77
2023/08/01 01:39:08;;;;;;;;;;;19.20;99.90;;;;;;2106964;28;20386;-75
2023/08/01 01:40:09;;;;;;;;;;;19.20;99.90;;;;;;2094838;28;19919;-75
2023/08/01 01:41:11;;;;;;;;;;;19.30;99.90;;;;;;2086738;28;19921;-75
2023/08/01 01:42:13;;;;;;;;;;;19.30;99.90;;;;;;2094710;28;19913;-75
2023/08/01 01:43:13;;;;;;;;;;;19.30;99.90;;;;;;2104537;28;19955;-77
2023/08/01 01:44:14;;;;;;;;;;;19.30;99.90;;;;;;2104479;28;19923;-77
2023/08/01 01:45:14;;;;;;;;;;;19.30;99.90;;;;;;2095233;28;19958;-76
2023/08/01 01:46:15;;;;;;;;;;;19.30;99.90;;;;;;2102809;28;20394;-77
2023/08/01 01:47:15;;;;;;;;;;;19.30;99.90;;;;;;2107169;28;20374;-78
2023/08/01 01:48:16;;;;;;;;;;;19.30;99.90;;;;;;2104181;28;19908;-73
2023/08/01 01:49:17;;;;;;;;;;;19.30;99.90;;;;;;2106462;28;19923;-76
2023/08/01 01:50:18;;;;;;;;;;;19.30;99.90;;;;;;2097178;28;19917;-74
2023/08/01 01:51:19;;;;;;;;;;;19.30;99.90;;;;;;2098817;28;19916;-77
2023/08/01 01:52:19;;;;;;;;;;;19.20;99.90;;;;;;2096581;28;19927;-77
2023/08/01 01:53:20;;;;;;;;;;;19.20;99.90;;;;;;2101858;28;19915;-78
2023/08/01 01:54:21;;;;;;;;;;;19.20;99.90;;;;;;2100176;28;20016;-77
2023/08/01 01:55:21;;;;;;;;;;;19.20;99.90;;;;;;2097957;28;20465;-76
2023/08/01 01:56:23;;;;;;;;;;;19.20;99.90;;;;;;2089443;28;20038;-77
2023/08/01 01:57:23;;;;;;;;;;;19.10;99.90;;;;;;2082902;28;20237;-75
2023/08/01 01:58:24;;;;;;;;;;;19.10;99.90;;;;;;2094938;28;19916;-76
2023/08/01 01:59:24;;;;;;;;;;;19.10;99.90;;;;;;2091569;28;20517;-78
2023/08/01 02:00:25;;;;;;;;;;;19.00;99.90;;;;;;2092754;28;19912;-77
2023/08/01 02:01:25;;;;;;;;;;;19.00;99.90;;;;;;2102236;28;19915;-78
2023/08/01 02:02:26;;;;;;;;;;;19.00;99.90;;;;;;2099932;28;20014;-77
2023/08/01 02:03:26;;;;;;;;;;;19.00;99.90;;;;;;2098013;28;20007;-77
2023/08/01 02:04:27;;;;;;;;;;;18.90;99.90;;;;;;2098686;28;19916;-77
2023/08/01 02:05:28;;;;;;;;;;;18.90;99.90;;;;;;2098413;28;19920;-76
2023/08/01 02:06:29;;;;;;;;;;;18.80;99.90;;;;;;2092854;28;20027;-76
2023/08/01 02:07:29;;;;;;;;;;;18.70;99.90;;;;;;2087422;28;19913;-77
2023/08/01 02:08:30;;;;;;;;;;;18.70;99.90;;;;;;2102285;28;19995;-77
2023/08/01 02:09:31;;;;;;;;;;;18.60;99.90;;;;;;2100673;28;20010;-77
2023/08/01 02:10:32;;;;;;;;;;;18.60;99.90;;;;;;2092104;28;19912;-77
2023/08/01 02:11:32;;;;;;;;;;;18.50;99.90;;;;;;2103258;28;19923;-76
2023/08/01 02:12:35;;;;;;;;;;;18.50;99.90;;;;;;2097820;28;19912;-76
2023/08/01 02:13:36;;;;;;;;;;;18.40;99.90;;;;;;2098408;28;19927;-76
2023/08/01 02:14:36;;;;;;;;;;;18.40;99.90;;;;;;2100167;28;19924;-75
2023/08/01 02:15:37;;;;;;;;;;;18.30;99.90;;;;;;2101236;28;20342;-75
2023/08/01 02:16:38;;;;;;;;;;;18.30;99.90;;;;;;2088991;28;19917;-75
2023/08/01 02:17:39;;;;;;;;;;;18.20;99.90;;;;;;2087287;28;19919;-75
2023/08/01 02:18:39;;;;;;;;;;;18.20;99.90;;;;;;2091003;28;20013;-75
2023/08/01 02:19:39;;;;;;;;;;;18.20;99.90;;;;;;2091614;28;19944;-76
2023/08/01 02:20:40;;;;;;;;;;;18.10;99.90;;;;;;2092268;28;20429;-77
2023/08/01 02:21:41;;;;;;;;;;;18.10;99.90;;;;;;2094526;28;19957;-76
2023/08/01 02:22:41;;;;;;;;;;;18.10;99.90;;;;;;2095751;28;19916;-77
2023/08/01 02:23:42;;;;;;;;;;;18.10;99.90;;;;;;2089127;28;20382;-76
2023/08/01 02:24:42;;;;;;;;;;;18.00;99.90;;;;;;2092746;28;19916;-77
2023/08/01 02:25:43;;;;;;;;;;;18.00;99.90;;;;;;2091476;28;19917;-77
2023/08/01 02:26:43;;;;;;;;;;;17.90;99.90;;;;;;2096527;28;19920;-77
2023/08/01 02:27:43;;;;;;;;;;;17.90;99.90;;;;;;2100802;28;20401;-76
2023/08/01 02:28:44;;;;;;;;;;;17.90;99.90;;;;;;2105132;28;20026;-76
2023/08/01 02:29:45;;;;;;;;;;;17.90;99.90;;;;;;2101883;28;20348;-77
2023/08/01 02:30:45;;;;;;;;;;;17.80;99.90;;;;;;2105936;28;19912;-76
2023/08/01 02:31:46;;;;;;;;;;;17.80;99.90;;;;;;2097784;28;19970;-77
2023/08/01 02:32:47;;;;;;;;;;;17.80;99.90;;;;;;2100803;28;19924;-77
2023/08/01 02:33:47;;;;;;;;;;;17.80;99.90;;;;;;2101936;28;19948;-77
2023/08/01 02:34:48;;;;;;;;;;;17.80;99.90;;;;;;2095650;28;19971;-76
2023/08/01 02:35:49;;;;;;;;;;;17.80;99.90;;;;;;2097979;28;20544;-77
2023/08/01 02:36:49;;;;;;;;;;;17.80;99.90;;;;;;2102206;28;19977;-76
2023/08/01 02:37:50;;;;;;;;;;;17.90;99.90;;;;;;2103765;28;19915;-75
2023/08/01 02:38:50;;;;;;;;;;;17.80;99.90;;;;;;2100443;28;19912;-77
2023/08/01 02:39:51;;;;;;;;;;;17.80;99.90;;;;;;2095969;28;20556;-77
2023/08/01 02:40:51;;;;;;;;;;;17.80;99.90;;;;;;2102254;28;19912;-77
2023/08/01 02:41:52;;;;;;;;;;;17.80;99.90;;;;;;2098461;28;19965;-76
2023/08/01 02:42:52;;;;;;;;;;;17.80;99.90;;;;;;2101588;28;19924;-77
2023/08/01 02:43:53;;;;;;;;;;;17.80;99.90;;;;;;2096197;28;20097;-76
2023/08/01 02:44:53;;;;;;;;;;;17.80;99.90;;;;;;2100482;28;20442;-77
2023/08/01 02:45:54;;;;;;;;;;;17.80;99.90;;;;;;2101949;28;20097;-76
2023/08/01 02:46:54;;;;;;;;;;;17.80;99.90;;;;;;2104605;28;19919;-75
2023/08/01 02:47:55;;;;;;;;;;;17.80;99.90;;;;;;2098020;28;19977;-77
2023/08/01 02:48:55;;;;;;;;;;;17.80;99.90;;;;;;2104284;28;19912;-77
2023/08/01 02:49:56;;;;;;;;;;;17.80;99.90;;;;;;2099358;28;20376;-75
2023/08/01 02:50:58;;;;;;;;;;;17.80;99.90;;;;;;2107398;28;20332;-76
2023/08/01 02:51:58;;;;;;;;;;;17.80;99.90;;;;;;2108466;28;19916;-76
2023/08/01 02:52:59;;;;;;;;;;;17.80;99.90;;;;;;2099340;28;19908;-76
2023/08/01 02:53:59;;;;;;;;;;;17.80;99.90;;;;;;2102343;28;19912;-77
2023/08/01 02:55:00;;;;;;;;;;;17.80;99.90;;;;;;2105887;28;20010;-77
2023/08/01 02:56:00;;;;;;;;;;;17.80;99.90;;;;;;2104913;28;20371;-76
2023/08/01 02:57:01;;;;;;;;;;;17.80;99.90;;;;;;2102917;28;19965;-77
2023/08/01 02:58:01;;;;;;;;;;;17.80;99.90;;;;;;2104073;28;19916;-77
2023/08/01 02:59:04;;;;;;;;;;;17.80;99.90;;;;;;2104373;28;19924;-77
2023/08/01 03:00:05;;;;;;;;;;;17.80;99.90;;;;;;2104906;27;20003;-76
2023/08/01 03:01:09;;;;;;;;;;;17.80;99.90;;;;;;2102854;28;20389;-77
2023/08/01 03:02:09;;;;;;;;;;;17.80;99.90;;;;;;2104692;28;20337;-77
2023/08/01 03:03:10;;;;;;;;;;;17.80;99.90;;;;;;2097890;28;19913;-77
2023/08/01 03:04:14;;;;;;;;;;;17.80;99.90;;;;;;2103706;28;19915;-76
2023/08/01 03:05:15;;;;;;;;;;;17.80;99.90;;;;;;2097610;28;19959;-77
2023/08/01 03:06:15;;;;;;;;;;;17.80;99.90;;;;;;2107182;28;20010;-75
2023/08/01 03:07:16;;;;;;;;;;;17.80;99.90;;;;;;2099497;28;20131;-76
2023/08/01 03:08:16;;;;;;;;;;;17.80;99.90;;;;;;2100243;28;20584;-76
2023/08/01 03:09:17;;;;;;;;;;;17.80;99.90;;;;;;2099313;28;19944;-76
2023/08/01 03:10:17;;;;;;;;;;;17.90;99.90;;;;;;2107607;28;19912;-76
2023/08/01 03:11:18;;;;;;;;;;;17.90;99.90;;;;;;2097083;28;20448;-71
2023/08/01 03:12:18;;;;;;;;;;;17.90;99.90;;;;;;2103259;28;19915;-77
2023/08/01 03:13:19;;;;;;;;;;;17.90;99.90;;;;;;2105560;28;19981;-76
2023/08/01 03:14:19;;;;;;;;;;;17.90;99.90;;;;;;2105140;28;19941;-76
2023/08/01 03:15:20;;;;;;;;;;;17.90;99.90;;;;;;2106744;28;19924;-76
2023/08/01 03:16:20;;;;;;;;;;;17.90;99.90;;;;;;2095642;28;19920;-76
2023/08/01 03:17:21;;;;;;;;;;;17.90;99.90;;;;;;2103114;28;19942;-76
2023/08/01 03:18:21;;;;;;;;;;;17.90;99.90;;;;;;2101481;28;19912;-76
2023/08/01 03:19:24;;;;;;;;;;;17.90;99.90;;;;;;2107918;28;19912;-76
2023/08/01 03:20:24;;;;;;;;;;;17.90;99.90;;;;;;2100590;28;20997;-76
2023/08/01 03:21:26;;;;;;;;;;;17.90;99.90;;;;;;2100113;28;19918;-77
2023/08/01 03:22:27;;;;;;;;;;;17.90;99.90;;;;;;2103227;28;19911;-77
2023/08/01 03:23:27;;;;;;;;;;;17.80;99.90;;;;;;2105187;28;20107;-77
2023/08/01 03:24:28;;;;;;;;;;;17.80;99.90;;;;;;2107886;28;19927;-77
2023/08/01 03:25:28;;;;;;;;;;;17.80;99.90;;;;;;2101417;28;19916;-77
2023/08/01 03:26:29;;;;;;;;;;;17.80;99.90;;;;;;2104034;28;19916;-77
2023/08/01 03:27:30;;;;;;;;;;;17.80;99.90;;;;;;2100432;28;19916;-77
2023/08/01 03:28:30;;;;;;;;;;;17.80;99.90;;;;;;2098997;28;19935;-76
2023/08/01 03:29:31;;;;;;;;;;;17.80;99.90;;;;;;2107008;28;20343;-77
2023/08/01 03:30:32;;;;;;;;;;;17.80;99.90;;;;;;2103076;28;19974;-77
2023/08/01 03:31:32;;;;;;;;;;;17.90;99.90;;;;;;2094609;28;20105;-76
2023/08/01 03:32:33;;;;;;;;;;;17.90;99.90;;;;;;2104916;28;19920;-76
2023/08/01 03:33:34;;;;;;;;;;;17.90;99.90;;;;;;2101622;28;19972;-76
2023/08/01 03:34:34;;;;;;;;;;;17.90;99.90;;;;;;2095254;28;19927;-75
2023/08/01 03:35:35;;;;;;;;;;;17.90;99.90;;;;;;2098674;28;19962;-70
2023/08/01 03:36:35;;;;;;;;;;;17.90;99.90;;;;;;2102474;28;19915;-71
2023/08/01 03:37:36;;;;;;;;;;;17.90;99.90;;;;;;2104206;28;19919;-70
2023/08/01 03:38:36;;;;;;;;;;;17.90;99.90;;;;;;2101488;28;20014;-75
2023/08/01 03:39:37;;;;;;;;;;;17.90;99.90;;;;;;2102222;28;20383;-75
2023/08/01 03:40:38;;;;;;;;;;;17.90;99.90;;;;;;2104133;28;19968;-76
2023/08/01 03:41:39;;;;;;;;;;;17.90;99.90;;;;;;2100997;28;20403;-75
2023/08/01 03:42:40;;;;;;;;;;;17.90;99.90;;;;;;2097726;28;20219;-76
2023/08/01 03:43:40;;;;;;;;;;;17.90;99.90;;;;;;2082854;28;19920;-77
2023/08/01 03:44:41;;;;;;;;;;;17.90;99.90;;;;;;2095832;28;19920;-76
2023/08/01 03:45:41;;;;;;;;;;;17.90;99.90;;;;;;2098874;28;19948;-76
2023/08/01 03:46:42;;;;;;;;;;;17.80;99.90;;;;;;2109053;28;19924;-76
2023/08/01 03:47:43;;;;;;;;;;;17.80;99.90;;;;;;2106363;28;20273;-76
2023/08/01 03:48:43;;;;;;;;;;;17.90;99.90;;;;;;2101994;28;19917;-76
2023/08/01 03:49:44;;;;;;;;;;;17.80;99.90;;;;;;2094694;28;19917;-76
2023/08/01 03:50:44;;;;;;;;;;;17.80;99.90;;;;;;2101787;28;20014;-75
2023/08/01 03:51:45;;;;;;;;;;;17.80;99.90;;;;;;2093599;28;19912;-77
2023/08/01 03:52:46;;;;;;;;;;;17.80;99.90;;;;;;2103843;28;20306;-77
2023/08/01 03:53:46;;;;;;;;;;;17.80;99.90;;;;;;2099553;27;19912;-76
2023/08/01 03:54:48;;;;;;;;;;;17.80;99.90;;;;;;2098818;28;19927;-76
2023/08/01 03:55:49;;;;;;;;;;;17.80;99.90;;;;;;2094834;28;19913;-76
2023/08/01 03:56:49;;;;;;;;;;;17.90;99.90;;;;;;2102740;28;19970;-76
2023/08/01 03:57:49;;;;;;;;;;;17.90;99.90;;;;;;2111387;27;19962;-76
2023/08/01 03:58:50;;;;;;;;;;;17.90;99.90;;;;;;2099780;28;19912;-76
2023/08/01 03:59:50;;;;;;;;;;;17.90;99.90;;;;;;2093597;28;20015;-76
2023/08/01 04:00:51;;;;;;;;;;;17.90;99.90;;;;;;2095530;28;19927;-76
2023/08/01 04:01:52;;;;;;;;;;;17.90;99.90;;;;;;2100420;28;19920;-76
2023/08/01 04:02:52;;;;;;;;;;;17.90;99.90;;;;;;2095501;28;20489;-75
2023/08/01 04:03:53;;;;;;;;;;;17.90;99.90;;;;;;2090424;28;20003;-76
2023/08/01 04:04:53;;;;;;;;;;;18.00;99.90;;;;;;2098477;28;19924;-77
2023/08/01 04:05:54;;;;;;;;;;;18.00;99.90;;;;;;2094812;28;19916;-76
2023/08/01 04:06:54;;;;;;;;;;;18.00;99.90;;;;;;2093587;28;19912;-76
2023/08/01 04:07:55;;;;;;;;;;;18.00;99.90;;;;;;2102883;28;20174;-76
2023/08/01 04:08:56;;;;;;;;;;;18.00;99.90;;;;;;2100741;28;19911;-77
2023/08/01 04:09:56;;;;;;;;;;;18.00;99.90;;;;;;2099304;28;20246;-77
2023/08/01 04:10:57;;;;;;;;;;;18.00;99.90;;;;;;2098766;28;20030;-76
2023/08/01 04:11:58;;;;;;;;;;;18.00;99.90;;;;;;2093240;28;20326;-75
2023/08/01 04:12:58;;;;;;;;;;;18.10;99.90;;;;;;2095673;28;20482;-77
2023/08/01 04:13:59;;;;;;;;;;;18.10;99.90;;;;;;2096773;28;20520;-77
2023/08/01 04:15:00;;;;;;;;;;;18.10;99.90;;;;;;2096730;28;19963;-76
2023/08/01 04:16:00;;;;;;;;;;;18.10;99.90;;;;;;2104837;28;20827;-75
2023/08/01 04:17:01;;;;;;;;;;;18.10;99.90;;;;;;2105881;28;19958;-75
2023/08/01 04:18:02;;;;;;;;;;;18.10;99.90;;;;;;2101704;28;20283;-76
2023/08/01 04:19:02;;;;;;;;;;;18.10;99.90;;;;;;2099586;28;19937;-76
2023/08/01 04:20:03;;;;;;;;;;;18.10;99.90;;;;;;2103434;28;20015;-75
2023/08/01 04:21:03;;;;;;;;;;;18.10;99.90;;;;;;2097722;28;19912;-75
2023/08/01 04:22:04;;;;;;;;;;;18.10;99.90;;;;;;2104598;28;19923;-80
2023/08/01 04:23:04;;;;;;;;;;;18.10;99.90;;;;;;2102441;28;19948;-79
2023/08/01 04:24:05;;;;;;;;;;;18.10;99.90;;;;;;2103014;28;19986;-80
2023/08/01 04:25:06;;;;;;;;;;;18.10;99.90;;;;;;2096729;28;19919;-80
2023/08/01 04:26:06;;;;;;;;;;;18.10;99.90;;;;;;2105060;28;19916;-78
2023/08/01 04:27:07;;;;;;;;;;;18.10;99.90;;;;;;2111080;28;19951;-78
2023/08/01 04:28:07;;;;;;;;;;;18.10;99.90;;;;;;2098037;28;19966;-80
2023/08/01 04:29:08;;;;;;;;;;;18.10;99.90;;;;;;2105714;28;19915;-78
2023/08/01 04:30:09;;;;;;;;;;;18.10;99.90;;;;;;2109325;28;20061;-78
2023/08/01 04:31:09;;;;;;;;;;;18.10;99.90;;;;;;2110158;28;20301;-78
2023/08/01 04:32:12;;;;;;;;;;;18.10;99.90;;;;;;2109356;28;20317;-79
2023/08/01 04:33:13;;;;;;;;;;;18.10;99.90;;;;;;2102280;28;19931;-77
2023/08/01 04:34:13;;;;;;;;;;;18.10;99.90;;;;;;2106287;28;19919;-78
2023/08/01 04:35:14;;;;;;;;;;;18.10;99.90;;;;;;2106664;28;19916;-77
2023/08/01 04:36:14;;;;;;;;;;;18.10;99.90;;;;;;2106912;28;19924;-79
2023/08/01 04:37:15;;;;;;;;;;;18.10;99.90;;;;;;2105786;28;20356;-79
2023/08/01 04:38:16;;;;;;;;;;;18.10;99.90;;;;;;2107272;28;19923;-79
2023/08/01 04:39:16;;;;;;;;;;;18.10;99.90;;;;;;2108962;28;19987;-78
2023/08/01 04:40:17;;;;;;;;;;;18.10;99.90;;;;;;2106817;28;20285;-78
2023/08/01 04:41:17;;;;;;;;;;;18.10;99.90;;;;;;2104340;28;20743;-78
2023/08/01 04:42:18;;;;;;;;;;;18.10;99.90;;;;;;2099912;28;19916;-78
2023/08/01 04:43:18;;;;;;;;;;;18.10;99.90;;;;;;2095792;28;19913;-78
2023/08/01 04:44:19;;;;;;;;;;;18.20;99.90;;;;;;2106962;28;19912;-80
2023/08/01 04:45:19;;;;;;;;;;;18.20;99.90;;;;;;2094791;28;20627;-83
2023/08/01 04:46:20;;;;;;;;;;;18.20;99.90;;;;;;2100025;28;20019;-80
2023/08/01 04:47:21;;;;;;;;;;;18.30;99.90;;;;;;2097837;28;19919;-80
2023/08/01 04:48:21;;;;;;;;;;;18.30;99.90;;;;;;2095647;28;19920;-75
2023/08/01 04:49:22;;;;;;;;;;;18.30;99.90;;;;;;2096958;28;19942;-76
2023/08/01 04:50:22;;;;;;;;;;;18.30;99.90;;;;;;2101500;28;19949;-76
2023/08/01 04:51:23;;;;;;;;;;;18.40;99.90;;;;;;2104055;28;20301;-76
2023/08/01 04:52:23;;;;;;;;;;;18.40;99.90;;;;;;2104815;28;19916;-76
2023/08/01 04:53:24;;;;;;;;;;;18.40;99.90;;;;;;2105791;28;19919;-77
2023/08/01 04:54:24;;;;;;;;;;;18.50;99.90;;;;;;2103335;28;20406;-77
2023/08/01 04:55:24;;;;;;;;;;;18.50;99.90;;;;;;2094978;28;19927;-77
2023/08/01 04:56:25;;;;;;;;;;;18.50;99.90;;;;;;2098858;28;20429;-76
2023/08/01 04:57:26;;;;;;;;;;;18.50;99.90;;;;;;2099136;28;19966;-77
2023/08/01 04:58:27;;;;;;;;;;;18.50;99.90;;;;;;2102625;28;19955;-78
2023/08/01 04:59:27;;;;;;;;;;;18.50;99.90;;;;;;2099599;28;20002;-77
2023/08/01 05:00:28;;;;;;;;;;;18.50;99.90;;;;;;2100949;28;19923;-77
2023/08/01 05:01:28;;;;;;;;;;;18.50;99.90;;;;;;2103777;28;19920;-77
2023/08/01 05:02:28;;;;;;;;;;;18.50;99.90;;;;;;2103569;28;19920;-77
2023/08/01 05:03:29;;;;;;;;;;;18.50;99.90;;;;;;2103224;28;19999;-76
2023/08/01 05:04:29;;;;;;;;;;;18.50;99.90;;;;;;2099434;28;19924;-78
2023/08/01 05:05:30;;;;;;;;;;;18.50;99.90;;;;;;2099501;28;19936;-77
2023/08/01 05:06:31;;;;;;;;;;;18.50;99.90;;;;;;2100316;28;19919;-74
2023/08/01 05:07:31;;;;;;;;;;;18.50;99.90;;;;;;2103557;28;19948;-76
2023/08/01 05:08:32;;;;;;;;;;;18.50;99.90;;;;;;2101274;28;20379;-76
2023/08/01 05:09:32;;;;;;;;;;;18.50;99.90;;;;;;2099923;28;19916;-76
2023/08/01 05:10:33;;;;;;;;;;;18.50;99.90;;;;;;2106376;28;19920;-76
2023/08/01 05:11:33;;;;;;;;;;;18.50;99.90;;;;;;2095377;28;19912;-76
2023/08/01 05:12:34;;;;;;;;;;;18.50;99.90;;;;;;2103339;28;20402;-76
2023/08/01 05:13:34;;;;;;;;;;;18.50;99.90;;;;;;2098767;28;20391;-76
2023/08/01 05:14:35;;;;;;;;;;;18.50;99.90;;;;;;2099609;28;20473;-74
2023/08/01 05:15:35;;;;;;;;;;;18.40;99.90;;;;;;2103123;28;19916;-76
2023/08/01 05:16:36;;;;;;;;;;;18.40;99.90;;;;;;2101050;28;19912;-76
2023/08/01 05:17:36;;;;;;;;;;;18.40;99.90;;;;;;2099580;28;19916;-76
2023/08/01 05:18:37;;;;;;;;;;;18.40;99.90;;;;;;2102478;28;20003;-76
2023/08/01 05:19:37;;;;;;;;;;;18.40;99.90;;;;;;2094076;28;19922;-76
2023/08/01 05:20:38;;;;;;;;;;;18.40;99.90;;;;;;2086745;28;20132;-76
2023/08/01 05:21:38;;;;;;;;;;;18.30;99.90;;;;;;2108380;28;20018;-76
2023/08/01 05:22:39;;;;;;;;;;;18.30;99.90;;;;;;2104228;28;19956;-75
2023/08/01 05:23:39;;;;;;;;;;;18.30;99.90;;;;;;2102310;28;19916;-76
2023/08/01 05:24:40;;;;;;;;;;;18.30;99.90;;;;;;2101188;28;19916;-77
2023/08/01 05:25:40;;;;;;;;;;;18.30;99.90;;;;;;2101253;28;20014;-77
2023/08/01 05:26:41;;;;;;;;;;;18.30;99.90;;;;;;2102838;28;20390;-76
2023/08/01 05:27:41;;;;;;;;;;;18.20;99.90;;;;;;2104272;28;19931;-76
2023/08/01 05:28:42;;;;;;;;;;;18.20;99.90;;;;;;2106069;28;19969;-76
2023/08/01 05:29:43;;;;;;;;;;;18.20;99.90;;;;;;2102847;28;20210;-77
2023/08/01 05:30:43;;;;;;;;;;;18.20;99.90;;;;;;2105078;27;20398;-77
2023/08/01 05:31:44;;;;;;;;;;;18.20;99.90;;;;;;2099042;28;19953;-76
2023/08/01 05:32:45;;;;;;;;;;;18.20;99.90;;;;;;2102718;28;19967;-78
2023/08/01 05:33:46;;;;;;;;;;;18.20;99.90;;;;;;2096359;28;20295;-77
2023/08/01 05:34:46;;;;;;;;;;;18.20;99.90;;;;;;2096355;28;19916;-77
2023/08/01 05:35:48;;;;;;;;;;;18.20;99.90;;;;;;2100822;28;19912;-77
2023/08/01 05:36:50;;;;;;;;;;;18.20;99.90;;;;;;2097500;28;19946;-78
2023/08/01 05:37:50;;;;;;;;;;;18.30;99.90;;;;;;2101414;28;19916;-78
2023/08/01 05:38:51;;;;;;;;;;;18.30;99.90;;;;;;2103646;28;19967;-77
2023/08/01 05:39:51;;;;;;;;;;;18.20;99.90;;;;;;2099127;28;20307;-79
2023/08/01 05:40:52;;;;;;;;;;;18.30;99.90;;;;;;2108725;28;19931;-75
2023/08/01 05:41:53;;;;;;;;;;;18.20;99.90;;;;;;2102660;28;19916;-75
2023/08/01 05:42:53;;;;;;;;;;;18.30;99.90;;;;;;2099013;28;20463;-75
2023/08/01 05:43:54;;;;;;;;;;;18.20;99.90;;;;;;2104342;28;19951;-75
2023/08/01 05:44:54;;;;;;;;;;;18.30;99.90;;;;;;2097332;28;20015;-76
2023/08/01 05:45:55;;;;;;;;;;;18.30;99.90;;;;;;2097786;28;20421;-76
2023/08/01 05:46:55;;;;;;;;;;;18.30;99.90;;;;;;2098670;28;19923;-75
2023/08/01 05:47:56;;;;;;;;;;;18.30;99.90;;;;;;2098501;28;19916;-78
2023/08/01 05:48:56;;;;;;;;;;;18.30;99.90;;;;;;2099577;28;19912;-75
2023/08/01 05:49:57;;;;;;;;;;;18.30;99.90;;;;;;2101771;28;19919;-75
2023/08/01 05:50:58;;;;;;;;;;;18.30;99.90;;;;;;2101379;28;20402;-76
2023/08/01 05:51:58;;;;;;;;;;;18.30;99.90;;;;;;2099564;28;20027;-76
2023/08/01 05:52:59;;;;;;;;;;;18.30;99.90;;;;;;2100870;28;20008;-75